Time;durP1;ratioP1;P1;durP2;ratioP2;P2;SDS_P1;SDS_P2;PMS_P1;PMS_P2;Temp;Humidity;BMP_temperature;BMP_pressure;BME280_temperature;BME280_humidity;BME280_pressure;Samples;Min_cycle;Max_cycle;Signal;HPM_P1;HPM_P2
2022/06/07 00:02:11;;;;;;;;;;;23.70;91.50;;;;;;4857410;29;19951;-63
2022/06/07 00:04:39;;;;;;;;;;;23.70;91.50;;;;;;4854846;29;19939;-62
2022/06/07 00:07:07;;;;;;;;;;;23.70;91.50;;;;;;4855628;29;19932;-64
2022/06/07 00:09:34;;;;;;;;;;;23.70;91.50;;;;;;4873123;29;19927;-64
2022/06/07 00:12:01;;;;;;;;;;;23.70;91.50;;;;;;4867599;29;20380;-63
2022/06/07 00:14:28;;;;;;;;;;;23.70;91.50;;;;;;4860311;29;19935;-62
2022/06/07 00:16:56;;;;;;;;;;;23.60;91.50;;;;;;4857906;29;19940;-60
2022/06/07 00:19:23;;;;;;;;;;;23.60;91.50;;;;;;4860052;29;19943;-60
2022/06/07 00:21:50;;;;;;;;;;;23.60;91.50;;;;;;4867711;29;19943;-61
2022/06/07 00:24:18;;;;;;;;;;;23.60;91.50;;;;;;4869428;29;20408;-60
2022/06/07 00:26:46;;;;;;;;;;;23.60;91.50;;;;;;4877956;29;19939;-62
2022/06/07 00:29:13;;;;;;;;;;;23.60;91.40;;;;;;4869100;29;19939;-62
2022/06/07 00:31:41;;;;;;;;;;;23.60;91.50;;;;;;4848199;29;19928;-60
2022/06/07 00:34:08;;;;;;;;;;;23.60;91.50;;;;;;4851168;29;19932;-58
2022/06/07 00:36:36;;;;;;;;;;;23.60;91.50;;;;;;4860440;29;20238;-63
2022/06/07 00:39:04;;;;;;;;;;;23.60;91.50;;;;;;4854033;29;19928;-63
2022/06/07 00:41:31;;;;;;;;;;;23.60;91.50;;;;;;4876872;29;19941;-61
2022/06/07 00:44:17;;;;;;;;;;;23.60;91.50;;;;;;4859122;29;19935;-62
2022/06/07 00:46:45;;;;;;;;;;;23.60;91.50;;;;;;4867710;29;19947;-59
2022/06/07 00:49:13;;;;;;;;;;;23.60;91.50;;;;;;4860456;29;20397;-63
2022/06/07 00:51:41;;;;;;;;;;;23.60;91.50;;;;;;4862792;29;20360;-63
2022/06/07 00:54:08;;;;;;;;;;;23.60;91.50;;;;;;4848285;29;19932;-63
2022/06/07 00:56:36;;;;;;;;;;;23.60;91.50;;;;;;4873476;29;20410;-63
2022/06/07 00:59:04;;;;;;;;;;;23.60;91.50;;;;;;4842243;29;20428;-59
2022/06/07 01:01:32;;;;;;;;;;;23.60;91.50;;;;;;4850071;29;19952;-63
2022/06/07 01:04:00;;;;;;;;;;;23.60;91.40;;;;;;4843740;29;19928;-61
2022/06/07 01:11:59;;;;;;;;;;;23.50;91.40;;;;;;4870440;29;20046;-62
2022/06/07 01:14:26;;;;;;;;;;;23.60;91.40;;;;;;4858136;29;19943;-59
2022/06/07 01:16:53;;;;;;;;;;;23.50;91.40;;;;;;4846191;29;19943;-64
2022/06/07 01:19:20;;;;;;;;;;;23.60;91.40;;;;;;4856814;29;19932;-63
2022/06/07 01:21:48;;;;;;;;;;;23.50;91.40;;;;;;4855090;29;19932;-65
2022/06/07 01:24:15;;;;;;;;;;;23.50;91.40;;;;;;4858260;29;19928;-61
2022/06/07 01:26:53;;;;;;;;;;;23.50;91.40;;;;;;4852714;29;19932;-63
2022/06/07 01:29:21;;;;;;;;;;;23.50;91.40;;;;;;4842433;29;19939;-63
2022/06/07 01:31:48;;;;;;;;;;;23.50;91.40;;;;;;4869307;29;19939;-64
2022/06/07 01:34:20;;;;;;;;;;;23.50;91.40;;;;;;4845539;29;20396;-62
2022/06/07 01:36:47;;;;;;;;;;;23.50;91.40;;;;;;4852797;29;19943;-62
2022/06/07 01:42:00;;;;;;;;;;;23.50;91.40;;;;;;4878894;29;19932;-64
2022/06/07 01:44:37;;;;;;;;;;;23.50;91.40;;;;;;4859636;29;19932;-60
2022/06/07 01:47:05;;;;;;;;;;;23.50;91.40;;;;;;4857684;29;19928;-58
2022/06/07 01:49:34;;;;;;;;;;;23.50;91.40;;;;;;4848507;29;19928;-63
2022/06/07 01:52:03;;;;;;;;;;;23.50;91.40;;;;;;4860916;29;19939;-64
2022/06/07 01:54:34;;;;;;;;;;;23.50;91.40;;;;;;4855969;29;19943;-62
2022/06/07 01:57:01;;;;;;;;;;;23.50;91.40;;;;;;4868567;29;19931;-61
2022/06/07 01:59:29;;;;;;;;;;;23.50;91.40;;;;;;4861455;29;19932;-63
2022/06/07 02:01:56;;;;;;;;;;;23.50;91.40;;;;;;4878046;29;20442;-60
2022/06/07 02:04:23;;;;;;;;;;;23.50;91.40;;;;;;4856606;29;19936;-62
2022/06/07 02:06:51;;;;;;;;;;;23.50;91.40;;;;;;4871283;29;19932;-63
2022/06/07 02:09:27;;;;;;;;;;;23.50;91.40;;;;;;4859184;29;19932;-65
2022/06/07 02:11:56;;;;;;;;;;;23.40;91.40;;;;;;4853347;29;19951;-61
2022/06/07 02:14:23;;;;;;;;;;;23.40;91.60;;;;;;4840395;29;19936;-64
2022/06/07 02:16:50;;;;;;;;;;;23.40;91.40;;;;;;4854141;29;19932;-64
2022/06/07 02:19:21;;;;;;;;;;;23.40;91.40;;;;;;4856365;29;20011;-62
2022/06/07 02:21:48;;;;;;;;;;;23.40;91.40;;;;;;4861455;29;19928;-63
2022/06/07 02:24:16;;;;;;;;;;;23.40;91.30;;;;;;4866215;29;19935;-62
2022/06/07 02:26:52;;;;;;;;;;;23.40;91.60;;;;;;4855406;29;19935;-62
2022/06/07 02:29:28;;;;;;;;;;;23.40;91.30;;;;;;4863251;29;19928;-62
2022/06/07 02:31:58;;;;;;;;;;;23.40;91.30;;;;;;4857765;29;19932;-62
2022/06/07 02:34:26;;;;;;;;;;;23.40;91.30;;;;;;4871475;29;19932;-61
2022/06/07 02:36:55;;;;;;;;;;;23.40;91.30;;;;;;4851391;29;19932;-63
2022/06/07 02:39:22;;;;;;;;;;;23.40;91.30;;;;;;4865695;29;19954;-60
2022/06/07 02:41:50;;;;;;;;;;;23.40;91.40;;;;;;4866863;29;20499;-59
2022/06/07 02:44:17;;;;;;;;;;;23.40;91.30;;;;;;4856744;29;19932;-63
2022/06/07 02:46:44;;;;;;;;;;;23.40;91.30;;;;;;4862777;29;19936;-60
2022/06/07 02:49:12;;;;;;;;;;;23.40;91.30;;;;;;4843793;29;19958;-62
2022/06/07 02:51:41;;;;;;;;;;;23.40;91.30;;;;;;4866190;29;19951;-60
2022/06/07 02:54:10;;;;;;;;;;;23.40;91.30;;;;;;4857682;29;19927;-63
2022/06/07 02:56:38;;;;;;;;;;;23.40;91.30;;;;;;4856116;29;19932;-65
2022/06/07 02:59:05;;;;;;;;;;;23.40;91.30;;;;;;4855261;29;19951;-62
2022/06/07 03:01:33;;;;;;;;;;;23.40;91.30;;;;;;4854507;29;19933;-61
2022/06/07 03:04:03;;;;;;;;;;;23.30;91.30;;;;;;4853694;29;19932;-62
2022/06/07 03:06:33;;;;;;;;;;;23.30;91.30;;;;;;4869563;29;20022;-60
2022/06/07 03:09:01;;;;;;;;;;;23.40;91.30;;;;;;4860905;29;19932;-63
2022/06/07 03:11:29;;;;;;;;;;;23.40;91.30;;;;;;4870123;29;20423;-63
2022/06/07 03:13:58;;;;;;;;;;;23.40;91.30;;;;;;4861007;29;19928;-64
2022/06/07 03:16:28;;;;;;;;;;;23.30;91.20;;;;;;4860509;29;20281;-61
2022/06/07 03:18:59;;;;;;;;;;;23.30;91.30;;;;;;4847974;29;20498;-65
2022/06/07 03:21:28;;;;;;;;;;;23.30;91.20;;;;;;4858239;29;20316;-59
2022/06/07 03:23:55;;;;;;;;;;;23.30;91.30;;;;;;4838937;29;19932;-63
2022/06/07 03:26:23;;;;;;;;;;;23.30;91.30;;;;;;4843615;29;20239;-61
2022/06/07 03:28:59;;;;;;;;;;;23.30;91.30;;;;;;4854484;29;19932;-61
2022/06/07 03:31:27;;;;;;;;;;;23.30;91.30;;;;;;4870831;29;19931;-63
2022/06/07 03:33:58;;;;;;;;;;;23.30;91.20;;;;;;4856778;29;19943;-61
2022/06/07 03:36:30;;;;;;;;;;;23.30;91.30;;;;;;4848316;29;19928;-64
2022/06/07 03:38:59;;;;;;;;;;;23.30;91.20;;;;;;4839632;29;19939;-60
2022/06/07 03:41:31;;;;;;;;;;;23.30;91.20;;;;;;4849528;29;19980;-63
2022/06/07 03:44:20;;;;;;;;;;;23.30;91.20;;;;;;4840163;29;20587;-60
2022/06/07 03:46:54;;;;;;;;;;;23.30;91.20;;;;;;4860303;29;19932;-63
2022/06/07 03:49:21;;;;;;;;;;;23.30;91.30;;;;;;4857513;29;19932;-62
2022/06/07 03:51:52;;;;;;;;;;;23.20;91.20;;;;;;4865368;29;19932;-63
2022/06/07 03:54:19;;;;;;;;;;;23.30;91.20;;;;;;4839292;29;19936;-63
2022/06/07 03:56:49;;;;;;;;;;;23.30;91.20;;;;;;4849026;29;20419;-60
2022/06/07 03:59:18;;;;;;;;;;;23.20;91.20;;;;;;4863166;29;19928;-63
2022/06/07 04:01:47;;;;;;;;;;;23.20;91.20;;;;;;4854648;29;19939;-62
2022/06/07 04:04:14;;;;;;;;;;;23.20;91.20;;;;;;4852718;29;19951;-62
2022/06/07 04:09:40;;;;;;;;;;;23.20;91.20;;;;;;4857134;29;20046;-62
2022/06/07 04:12:15;;;;;;;;;;;23.20;91.20;;;;;;4856881;29;20292;-63
2022/06/07 04:14:43;;;;;;;;;;;23.20;91.50;;;;;;4853434;29;19929;-62
2022/06/07 04:17:12;;;;;;;;;;;23.20;91.20;;;;;;4847311;29;20348;-63
2022/06/07 04:19:43;;;;;;;;;;;23.20;91.20;;;;;;4842109;29;19928;-62
2022/06/07 04:22:12;;;;;;;;;;;23.20;91.20;;;;;;4835430;29;19932;-61
2022/06/07 04:24:46;;;;;;;;;;;23.20;91.20;;;;;;4859852;29;19939;-64
2022/06/07 04:27:16;;;;;;;;;;;23.20;91.50;;;;;;4837372;29;19932;-63
2022/06/07 04:29:48;;;;;;;;;;;23.20;91.20;;;;;;4846651;29;19928;-64
2022/06/07 04:32:16;;;;;;;;;;;23.20;91.20;;;;;;4846838;29;19939;-63
2022/06/07 04:34:46;;;;;;;;;;;23.20;91.20;;;;;;4839790;29;19939;-63
2022/06/07 04:37:17;;;;;;;;;;;23.20;91.20;;;;;;4866154;29;20297;-62
2022/06/07 04:39:45;;;;;;;;;;;23.20;91.20;;;;;;4837303;29;19943;-64
2022/06/07 04:42:13;;;;;;;;;;;23.20;91.20;;;;;;4841384;29;20397;-63
2022/06/07 04:44:51;;;;;;;;;;;23.20;91.20;;;;;;4854063;29;19932;-61
2022/06/07 04:47:24;;;;;;;;;;;23.20;91.20;;;;;;4850437;29;19939;-64
2022/06/07 04:49:53;;;;;;;;;;;23.20;91.20;;;;;;4849700;29;19932;-60
2022/06/07 04:52:20;;;;;;;;;;;23.20;91.20;;;;;;4854196;29;20439;-60
2022/06/07 04:54:52;;;;;;;;;;;23.20;91.50;;;;;;4838378;29;19951;-61
2022/06/07 04:57:21;;;;;;;;;;;23.20;91.20;;;;;;4851183;29;19943;-63
2022/06/07 04:59:48;;;;;;;;;;;23.20;91.20;;;;;;4851211;29;20308;-61
2022/06/07 05:02:17;;;;;;;;;;;23.10;91.20;;;;;;4850875;29;19947;-64
2022/06/07 05:04:46;;;;;;;;;;;23.10;91.20;;;;;;4863744;29;19932;-62
2022/06/07 05:07:20;;;;;;;;;;;23.20;91.20;;;;;;4852748;29;19932;-62
2022/06/07 05:10:01;;;;;;;;;;;23.20;91.20;;;;;;4853436;29;19947;-60
2022/06/07 05:12:37;;;;;;;;;;;23.20;91.20;;;;;;4847097;29;19928;-60
2022/06/07 05:15:05;;;;;;;;;;;23.10;91.20;;;;;;4845345;29;20363;-59
2022/06/07 05:17:42;;;;;;;;;;;23.10;91.20;;;;;;4866171;29;19929;-61
2022/06/07 05:20:09;;;;;;;;;;;23.10;91.50;;;;;;4868366;29;19932;-65
2022/06/07 05:22:36;;;;;;;;;;;23.20;91.30;;;;;;4851944;29;19944;-62
2022/06/07 05:25:11;;;;;;;;;;;23.10;91.20;;;;;;4855997;29;19932;-65
2022/06/07 05:27:43;;;;;;;;;;;23.10;91.20;;;;;;4845659;29;19937;-64
2022/06/07 05:30:15;;;;;;;;;;;23.20;91.20;;;;;;4850045;29;19932;-58
2022/06/07 05:32:46;;;;;;;;;;;23.10;91.20;;;;;;4847475;29;19936;-63
2022/06/07 05:35:20;;;;;;;;;;;23.10;91.20;;;;;;4841530;29;19944;-62
2022/06/07 05:37:58;;;;;;;;;;;23.20;91.50;;;;;;4840515;29;19933;-63
2022/06/07 05:40:29;;;;;;;;;;;23.20;91.30;;;;;;4848036;29;19932;-58
2022/06/07 05:42:57;;;;;;;;;;;23.20;91.30;;;;;;4855766;29;19933;-63
2022/06/07 05:45:54;;;;;;;;;;;23.10;91.30;;;;;;4850148;29;19932;-61
2022/06/07 05:48:38;;;;;;;;;;;23.20;91.30;;;;;;4825940;29;19939;-60
2022/06/07 05:51:10;;;;;;;;;;;23.20;91.30;;;;;;4851508;29;20293;-60
2022/06/07 05:53:38;;;;;;;;;;;23.10;91.30;;;;;;4843348;29;19937;-63
2022/06/07 05:56:07;;;;;;;;;;;23.20;91.40;;;;;;4859678;29;20385;-61
2022/06/07 05:58:35;;;;;;;;;;;23.10;91.40;;;;;;4845025;29;19939;-62
2022/06/07 06:01:07;;;;;;;;;;;23.10;91.40;;;;;;4852784;29;19936;-60
2022/06/07 06:03:40;;;;;;;;;;;23.10;91.40;;;;;;4842210;29;19932;-60
2022/06/07 06:06:11;;;;;;;;;;;23.10;91.40;;;;;;4867485;29;19935;-63
2022/06/07 06:11:33;;;;;;;;;;;23.20;91.30;;;;;;4850593;29;19933;-64
2022/06/07 06:14:07;;;;;;;;;;;23.20;91.40;;;;;;4836609;29;19932;-62
2022/06/07 06:16:38;;;;;;;;;;;23.20;91.30;;;;;;4852518;29;19932;-61
2022/06/07 06:19:08;;;;;;;;;;;23.20;91.30;;;;;;4853630;29;19955;-61
2022/06/07 06:21:43;;;;;;;;;;;23.20;91.30;;;;;;4849490;29;20047;-63
2022/06/07 06:24:12;;;;;;;;;;;23.20;91.40;;;;;;4852345;29;19945;-62
2022/06/07 06:26:40;;;;;;;;;;;23.20;91.50;;;;;;4853343;29;19935;-63
2022/06/07 06:29:10;;;;;;;;;;;23.20;91.60;;;;;;4844910;29;19935;-63
2022/06/07 06:31:40;;;;;;;;;;;23.10;91.70;;;;;;4859788;29;19958;-61
2022/06/07 06:34:09;;;;;;;;;;;23.10;91.70;;;;;;4847599;29;19935;-61
2022/06/07 06:36:39;;;;;;;;;;;23.10;91.70;;;;;;4851928;29;19936;-59
2022/06/07 06:39:19;;;;;;;;;;;23.20;91.70;;;;;;4851980;29;20300;-60
2022/06/07 06:41:50;;;;;;;;;;;23.20;91.70;;;;;;4851829;29;19932;-62
2022/06/07 06:44:23;;;;;;;;;;;23.10;91.60;;;;;;4850368;29;19932;-62
2022/06/07 06:46:53;;;;;;;;;;;23.10;91.60;;;;;;4858454;29;19954;-62
2022/06/07 06:49:21;;;;;;;;;;;23.20;91.70;;;;;;4841313;29;19951;-61
2022/06/07 06:51:48;;;;;;;;;;;23.20;91.70;;;;;;4857800;29;19928;-63
2022/06/07 06:54:22;;;;;;;;;;;23.20;91.80;;;;;;4860328;29;19939;-61
2022/06/07 06:56:56;;;;;;;;;;;23.20;91.80;;;;;;4842796;29;19936;-62
2022/06/07 06:59:27;;;;;;;;;;;23.30;91.80;;;;;;4850061;29;19939;-62
2022/06/07 07:01:58;;;;;;;;;;;23.30;91.80;;;;;;4837751;29;19928;-63
2022/06/07 07:04:28;;;;;;;;;;;23.30;91.80;;;;;;4841919;29;19929;-63
2022/06/07 07:06:57;;;;;;;;;;;23.30;91.80;;;;;;4851888;29;19939;-65
2022/06/07 07:09:28;;;;;;;;;;;23.30;91.70;;;;;;4855947;29;19936;-64
2022/06/07 07:12:00;;;;;;;;;;;23.30;91.70;;;;;;4851858;29;19929;-59
2022/06/07 07:14:36;;;;;;;;;;;23.30;91.70;;;;;;4838246;29;19944;-67
2022/06/07 07:17:04;;;;;;;;;;;23.40;91.70;;;;;;4842413;29;19928;-64
2022/06/07 07:19:33;;;;;;;;;;;23.30;91.60;;;;;;4848124;29;19929;-65
2022/06/07 07:22:03;;;;;;;;;;;23.40;91.60;;;;;;4854662;29;19936;-63
2022/06/07 07:24:32;;;;;;;;;;;23.40;91.50;;;;;;4835739;29;19928;-61
2022/06/07 07:27:02;;;;;;;;;;;23.40;91.50;;;;;;4855660;29;19936;-63
2022/06/07 07:29:30;;;;;;;;;;;23.40;91.50;;;;;;4841203;29;19928;-65
2022/06/07 07:32:03;;;;;;;;;;;23.40;91.50;;;;;;4862642;29;20580;-61
2022/06/07 07:34:40;;;;;;;;;;;23.40;91.60;;;;;;4826695;29;19932;-63
2022/06/07 07:37:08;;;;;;;;;;;23.40;91.50;;;;;;4851314;29;19935;-61
2022/06/07 07:39:37;;;;;;;;;;;23.40;91.50;;;;;;4822339;29;20539;-65
2022/06/07 07:42:08;;;;;;;;;;;23.40;91.60;;;;;;4842346;29;20592;-61
2022/06/07 07:44:40;;;;;;;;;;;23.40;91.60;;;;;;4827023;29;19936;-62
2022/06/07 07:47:09;;;;;;;;;;;23.50;91.60;;;;;;4858872;29;19932;-63
2022/06/07 07:49:40;;;;;;;;;;;23.50;91.50;;;;;;4843627;29;20341;-61
2022/06/07 07:52:10;;;;;;;;;;;23.50;91.60;;;;;;4848948;29;20027;-61
2022/06/07 07:54:39;;;;;;;;;;;23.50;91.50;;;;;;4848763;29;19936;-64
2022/06/07 07:57:09;;;;;;;;;;;23.50;91.60;;;;;;4836614;29;19949;-65
2022/06/07 07:59:43;;;;;;;;;;;23.50;91.60;;;;;;4853447;29;20481;-64
2022/06/07 08:02:18;;;;;;;;;;;23.50;91.50;;;;;;4857254;29;19936;-63
2022/06/07 08:04:49;;;;;;;;;;;23.50;91.50;;;;;;4853989;29;20340;-62
2022/06/07 08:07:16;;;;;;;;;;;23.50;91.50;;;;;;4834207;29;19936;-63
2022/06/07 08:09:44;;;;;;;;;;;23.60;91.40;;;;;;4834833;29;19932;-64
2022/06/07 08:12:11;;;;;;;;;;;23.50;91.40;;;;;;4864860;29;19935;-58
2022/06/07 08:14:39;;;;;;;;;;;23.60;91.40;;;;;;4852257;29;20521;-62
2022/06/07 08:17:06;;;;;;;;;;;23.60;91.40;;;;;;4879330;29;20136;-62
2022/06/07 08:19:33;;;;;;;;;;;23.60;91.40;;;;;;4863518;29;19958;-62
2022/06/07 08:22:00;;;;;;;;;;;23.60;91.40;;;;;;4874676;29;19928;-63
2022/06/07 08:24:27;;;;;;;;;;;23.60;91.40;;;;;;4868855;29;20430;-63
2022/06/07 08:26:54;;;;;;;;;;;23.60;91.40;;;;;;4840275;29;19973;-62
2022/06/07 08:29:22;;;;;;;;;;;23.60;91.30;;;;;;4873361;29;19931;-61
2022/06/07 08:31:49;;;;;;;;;;;23.60;91.30;;;;;;4873513;29;19936;-64
2022/06/07 08:39:49;;;;;;;;;;;23.60;91.20;;;;;;4849105;29;19932;-63
2022/06/07 08:42:26;;;;;;;;;;;23.60;91.20;;;;;;4881676;29;19943;-65
2022/06/07 08:45:02;;;;;;;;;;;23.60;91.10;;;;;;4865609;29;20407;-60
2022/06/07 08:47:33;;;;;;;;;;;23.60;91.20;;;;;;4876880;29;19958;-62
2022/06/07 08:50:03;;;;;;;;;;;23.60;91.10;;;;;;4860017;29;20597;-62
2022/06/07 08:52:33;;;;;;;;;;;23.60;91.10;;;;;;4870220;29;19948;-63
2022/06/07 08:55:02;;;;;;;;;;;23.60;91.20;;;;;;4857352;29;20038;-61
2022/06/07 08:57:31;;;;;;;;;;;23.60;91.20;;;;;;4858878;29;19939;-63
2022/06/07 09:00:14;;;;;;;;;;;23.60;91.10;;;;;;4864937;29;19928;-61
2022/06/07 09:02:51;;;;;;;;;;;23.60;91.10;;;;;;4874570;29;19951;-58
2022/06/07 09:05:18;;;;;;;;;;;23.60;91.20;;;;;;4862998;29;19932;-60
2022/06/07 09:07:45;;;;;;;;;;;23.60;91.10;;;;;;4859215;29;19955;-62
2022/06/07 09:13:13;;;;;;;;;;;23.60;91.00;;;;;;4809889;29;20453;-59
2022/06/07 09:15:40;;;;;;;;;;;23.60;90.90;;;;;;4879132;29;19951;-62
2022/06/07 09:18:07;;;;;;;;;;;23.60;90.90;;;;;;4873574;29;19932;-59
2022/06/07 09:20:38;;;;;;;;;;;23.60;90.90;;;;;;4867640;29;19932;-62
2022/06/07 09:23:14;;;;;;;;;;;23.60;90.90;;;;;;4866881;29;19932;-63
2022/06/07 09:25:48;;;;;;;;;;;23.60;90.90;;;;;;4866058;29;19936;-62
2022/06/07 09:28:17;;;;;;;;;;;23.60;90.90;;;;;;4853877;29;19939;-60
2022/06/07 09:30:46;;;;;;;;;;;23.60;90.80;;;;;;4863343;29;20293;-60
2022/06/07 09:33:24;;;;;;;;;;;23.60;90.80;;;;;;4859341;29;19935;-61
2022/06/07 09:35:54;;;;;;;;;;;23.60;90.80;;;;;;4862054;29;20324;-62
2022/06/07 09:38:32;;;;;;;;;;;23.60;90.80;;;;;;4863891;29;19932;-63
2022/06/07 09:41:36;;;;;;;;;;;23.60;90.80;;;;;;4863116;29;20356;-63
2022/06/07 09:44:03;;;;;;;;;;;23.60;90.80;;;;;;4858920;29;20435;-63
2022/06/07 09:46:32;;;;;;;;;;;23.60;90.70;;;;;;4865141;29;19928;-58
2022/06/07 09:49:00;;;;;;;;;;;23.60;90.80;;;;;;4858063;29;19932;-60
2022/06/07 09:51:35;;;;;;;;;;;23.50;90.80;;;;;;4868435;29;19954;-63
2022/06/07 09:54:04;;;;;;;;;;;23.60;90.80;;;;;;4858059;29;19939;-63
2022/06/07 09:56:31;;;;;;;;;;;23.50;90.80;;;;;;4872213;29;20011;-61
2022/06/07 09:59:18;;;;;;;;;;;23.50;90.70;;;;;;4859353;29;19932;-62
2022/06/07 10:01:51;;;;;;;;;;;23.50;90.80;;;;;;4844571;29;19939;-60
2022/06/07 10:04:30;;;;;;;;;;;23.50;90.80;;;;;;4858917;29;19963;-62
2022/06/07 10:06:59;;;;;;;;;;;23.50;90.80;;;;;;4865234;29;19931;-62
2022/06/07 10:09:30;;;;;;;;;;;23.50;90.80;;;;;;4859106;29;20594;-59
2022/06/07 10:11:57;;;;;;;;;;;23.50;90.70;;;;;;4847259;29;19943;-60
2022/06/07 10:14:24;;;;;;;;;;;23.50;90.70;;;;;;4857638;29;20284;-61
2022/06/07 10:17:10;;;;;;;;;;;23.50;90.70;;;;;;4869590;29;20034;-62
2022/06/07 10:19:41;;;;;;;;;;;23.50;90.70;;;;;;4869774;29;19936;-62
2022/06/07 10:22:20;;;;;;;;;;;23.50;90.70;;;;;;4857338;29;19932;-64
2022/06/07 10:25:09;;;;;;;;;;;23.50;90.80;;;;;;4873735;29;19938;-63
2022/06/07 10:27:51;;;;;;;;;;;23.50;90.80;;;;;;4869345;29;19967;-64
2022/06/07 10:30:40;;;;;;;;;;;23.50;90.90;;;;;;4866676;29;19938;-65
2022/06/07 10:33:14;;;;;;;;;;;23.50;90.90;;;;;;4860204;29;19945;-62
2022/06/07 10:35:41;;;;;;;;;;;23.50;90.90;;;;;;4873117;29;20371;-64
2022/06/07 10:38:09;;;;;;;;;;;23.50;90.90;;;;;;4868023;29;19939;-64
2022/06/07 10:40:57;;;;;;;;;;;23.50;91.00;;;;;;4868606;29;19932;-61
2022/06/07 10:43:28;;;;;;;;;;;23.50;91.00;;;;;;4858586;29;19928;-63
2022/06/07 10:46:00;;;;;;;;;;;23.50;91.00;;;;;;4873741;29;19951;-60
2022/06/07 10:48:55;;;;;;;;;;;23.50;91.00;;;;;;4874147;29;19931;-64
2022/06/07 10:54:23;;;;;;;;;;;23.50;91.10;;;;;;4858571;29;19938;-61
2022/06/07 10:56:55;;;;;;;;;;;23.50;91.10;;;;;;4845452;29;20038;-63
2022/06/07 10:59:22;;;;;;;;;;;23.60;91.20;;;;;;4871063;29;19928;-62
2022/06/07 11:01:50;;;;;;;;;;;23.60;91.20;;;;;;4863797;29;19995;-57
2022/06/07 11:10:01;;;;;;;;;;;23.60;91.30;;;;;;4869482;29;19931;-62
2022/06/07 11:12:55;;;;;;;;;;;23.50;91.40;;;;;;4863194;29;19958;-62
2022/06/07 11:15:31;;;;;;;;;;;23.60;91.50;;;;;;4847328;29;19931;-58
2022/06/07 11:18:03;;;;;;;;;;;23.60;91.50;;;;;;4863908;29;19939;-63
2022/06/07 11:20:46;;;;;;;;;;;23.60;91.50;;;;;;4866059;29;19944;-60
2022/06/07 11:23:17;;;;;;;;;;;23.60;91.50;;;;;;4844863;29;19943;-62
2022/06/07 11:26:06;;;;;;;;;;;23.60;91.80;;;;;;4854572;29;20350;-61
2022/06/07 11:28:42;;;;;;;;;;;23.60;91.50;;;;;;4858529;29;19939;-61
2022/06/07 11:31:16;;;;;;;;;;;23.60;91.60;;;;;;4866043;29;20403;-61
2022/06/07 11:33:58;;;;;;;;;;;23.60;91.60;;;;;;4860179;29;19939;-59
2022/06/07 11:36:28;;;;;;;;;;;23.60;91.60;;;;;;4857365;29;19928;-64
2022/06/07 11:38:58;;;;;;;;;;;23.60;91.60;;;;;;4856788;29;20662;-63
2022/06/07 11:41:37;;;;;;;;;;;23.60;91.60;;;;;;4861890;29;19944;-63
2022/06/07 11:44:07;;;;;;;;;;;23.60;91.90;;;;;;4865932;29;19931;-64
2022/06/07 11:46:35;;;;;;;;;;;23.70;91.60;;;;;;4870648;29;19932;-64
2022/06/07 11:49:23;;;;;;;;;;;23.70;91.60;;;;;;4856709;29;19939;-64
2022/06/07 11:52:02;;;;;;;;;;;23.70;91.60;;;;;;4874870;29;19932;-63
2022/06/07 11:54:35;;;;;;;;;;;23.70;91.60;;;;;;4856495;29;19940;-64
2022/06/07 11:57:17;;;;;;;;;;;23.70;91.60;;;;;;4869848;29;19943;-63
2022/06/07 11:59:46;;;;;;;;;;;23.70;91.60;;;;;;4861866;29;20292;-62
2022/06/07 12:02:13;;;;;;;;;;;23.70;91.60;;;;;;4873310;29;20286;-61
2022/06/07 12:04:41;;;;;;;;;;;23.70;91.60;;;;;;4859703;29;19951;-62
2022/06/07 12:07:29;;;;;;;;;;;23.70;91.60;;;;;;4866114;29;19932;-60
2022/06/07 12:09:58;;;;;;;;;;;23.70;91.60;;;;;;4860429;29;20127;-60
2022/06/07 12:12:31;;;;;;;;;;;23.70;91.60;;;;;;4873836;29;19928;-58
2022/06/07 12:15:14;;;;;;;;;;;23.70;91.60;;;;;;4848980;29;20309;-61
2022/06/07 12:17:53;;;;;;;;;;;23.70;91.60;;;;;;4870475;29;19952;-61
2022/06/07 12:20:40;;;;;;;;;;;23.60;91.60;;;;;;4870341;29;19931;-60
2022/06/07 12:23:17;;;;;;;;;;;23.70;91.70;;;;;;4861592;29;19928;-60
2022/06/07 12:25:56;;;;;;;;;;;23.60;91.60;;;;;;4870821;29;19928;-64
2022/06/07 12:28:25;;;;;;;;;;;23.60;91.60;;;;;;4866202;29;19939;-58
2022/06/07 12:30:52;;;;;;;;;;;23.70;91.70;;;;;;4881823;29;19928;-61
2022/06/07 12:33:32;;;;;;;;;;;23.70;91.60;;;;;;4870635;29;19947;-60
2022/06/07 12:36:01;;;;;;;;;;;23.60;91.60;;;;;;4866587;29;19943;-64
2022/06/07 12:38:30;;;;;;;;;;;23.70;91.60;;;;;;4861605;29;19932;-61
2022/06/07 12:41:02;;;;;;;;;;;23.70;91.60;;;;;;4860504;29;19951;-64
2022/06/07 12:43:31;;;;;;;;;;;23.70;91.60;;;;;;4861844;29;19939;-62
2022/06/07 12:46:01;;;;;;;;;;;23.70;91.60;;;;;;4865324;29;19935;-63
2022/06/07 12:48:33;;;;;;;;;;;23.70;91.60;;;;;;4859613;29;19928;-62
2022/06/07 12:51:01;;;;;;;;;;;23.70;91.60;;;;;;4858288;29;19932;-62
2022/06/07 12:53:28;;;;;;;;;;;23.70;91.50;;;;;;4867270;29;20030;-63
2022/06/07 12:56:03;;;;;;;;;;;23.80;91.50;;;;;;4867509;29;19936;-62
2022/06/07 12:58:40;;;;;;;;;;;23.80;91.50;;;;;;4868544;29;20007;-62
2022/06/07 13:01:19;;;;;;;;;;;23.80;91.40;;;;;;4861842;29;20401;-61
2022/06/07 13:03:47;;;;;;;;;;;23.90;91.40;;;;;;4859775;29;20617;-65
2022/06/07 13:06:18;;;;;;;;;;;23.90;91.30;;;;;;4877983;29;19941;-62
2022/06/07 13:08:55;;;;;;;;;;;23.90;91.30;;;;;;4862940;29;19935;-60
2022/06/07 13:11:22;;;;;;;;;;;23.90;91.30;;;;;;4881628;29;20558;-59
2022/06/07 13:13:51;;;;;;;;;;;23.90;91.20;;;;;;4865781;29;19947;-61
2022/06/07 13:16:28;;;;;;;;;;;24.00;91.20;;;;;;4869479;29;20419;-62
2022/06/07 13:18:57;;;;;;;;;;;23.90;91.20;;;;;;4846759;29;19938;-59
2022/06/07 13:21:30;;;;;;;;;;;24.00;91.20;;;;;;4889397;29;19927;-62
2022/06/07 13:23:58;;;;;;;;;;;24.00;91.20;;;;;;4860462;29;19939;-62
2022/06/07 13:26:31;;;;;;;;;;;24.00;91.20;;;;;;4861598;29;20411;-61
2022/06/07 13:29:07;;;;;;;;;;;24.00;91.20;;;;;;4859754;29;19935;-60
2022/06/07 13:31:51;;;;;;;;;;;24.00;91.20;;;;;;4862569;29;20281;-60
2022/06/07 13:34:20;;;;;;;;;;;24.00;91.20;;;;;;4864751;29;19947;-63
2022/06/07 13:36:59;;;;;;;;;;;24.00;91.20;;;;;;4861384;29;20309;-59
2022/06/07 13:39:28;;;;;;;;;;;24.00;91.20;;;;;;4868413;29;19939;-64
2022/06/07 13:42:02;;;;;;;;;;;24.10;91.20;;;;;;4857040;29;19939;-62
2022/06/07 13:44:32;;;;;;;;;;;24.00;91.20;;;;;;4864805;29;19936;-62
2022/06/07 13:47:02;;;;;;;;;;;24.00;91.20;;;;;;4866164;29;20366;-63
2022/06/07 13:55:33;;;;;;;;;;;24.00;91.20;;;;;;4854836;29;19958;-64
2022/06/07 13:58:00;;;;;;;;;;;24.00;91.20;;;;;;4829763;29;19932;-63
2022/06/07 14:00:28;;;;;;;;;;;24.00;91.20;;;;;;4870033;29;19935;-61
2022/06/07 14:02:55;;;;;;;;;;;24.10;91.20;;;;;;4859926;29;19990;-58
2022/06/07 14:05:30;;;;;;;;;;;24.10;91.20;;;;;;4865716;29;20202;-58
2022/06/07 14:07:59;;;;;;;;;;;24.00;91.20;;;;;;4869123;29;20034;-60
2022/06/07 14:10:26;;;;;;;;;;;24.10;91.20;;;;;;4900603;29;19932;-60
2022/06/07 14:12:53;;;;;;;;;;;24.10;91.20;;;;;;4892472;29;21016;-61
2022/06/07 14:15:21;;;;;;;;;;;24.00;91.20;;;;;;4890488;29;19935;-63
2022/06/07 14:17:49;;;;;;;;;;;24.10;91.30;;;;;;4872488;29;19932;-59
2022/06/07 14:20:18;;;;;;;;;;;24.00;91.30;;;;;;4885710;29;19932;-62
2022/06/07 14:22:45;;;;;;;;;;;24.10;91.40;;;;;;4858571;29;20019;-60
2022/06/07 14:25:17;;;;;;;;;;;24.10;91.30;;;;;;4857255;29;19935;-62
2022/06/07 14:27:45;;;;;;;;;;;24.20;91.30;;;;;;4865638;29;19938;-63
2022/06/07 14:30:12;;;;;;;;;;;24.30;91.20;;;;;;4868442;29;20373;-60
2022/06/07 14:32:46;;;;;;;;;;;24.40;91.10;;;;;;4861815;29;19939;-61
2022/06/07 14:35:17;;;;;;;;;;;24.40;91.00;;;;;;4862997;29;19954;-60
2022/06/07 14:37:45;;;;;;;;;;;24.40;91.00;;;;;;4865254;29;19935;-62
2022/06/07 14:40:17;;;;;;;;;;;24.30;91.10;;;;;;4847949;29;20372;-59
2022/06/07 14:42:44;;;;;;;;;;;24.30;91.10;;;;;;4868526;29;19932;-62
2022/06/07 14:45:12;;;;;;;;;;;24.20;91.20;;;;;;4871434;29;19932;-62
2022/06/07 14:47:40;;;;;;;;;;;24.20;91.20;;;;;;4868137;29;19936;-58
2022/06/07 14:50:11;;;;;;;;;;;24.20;91.20;;;;;;4867860;29;19938;-60
2022/06/07 14:52:38;;;;;;;;;;;24.20;91.30;;;;;;4868004;29;19932;-57
2022/06/07 14:55:13;;;;;;;;;;;24.20;91.30;;;;;;5086241;27;2008205;-63
2022/06/07 14:57:43;;;;;;;;;;;24.10;91.30;;;;;;5130737;27;20558;-62
2022/06/07 15:00:13;;;;;;;;;;;24.10;91.40;;;;;;5129288;27;20302;-61
2022/06/07 15:02:43;;;;;;;;;;;24.10;91.40;;;;;;5146921;27;19923;-61
2022/06/07 15:05:28;;;;;;;;;;;24.10;91.40;;;;;;5132390;27;19923;-60
2022/06/07 15:08:06;;;;;;;;;;;24.10;91.40;;;;;;5121444;28;19928;-63
2022/06/07 15:10:37;;;;;;;;;;;24.10;91.40;;;;;;5138529;27;19943;-62
2022/06/07 15:13:23;;;;;;;;;;;24.10;91.50;;;;;;5127184;27;19935;-63
2022/06/07 15:15:53;;;;;;;;;;;24.00;91.40;;;;;;5128215;27;19935;-63
2022/06/07 15:18:21;;;;;;;;;;;24.00;91.50;;;;;;5127804;27;19935;-59